Williamsport, PA

1:02 PM EDT on May 22, 2015 (GMT -0400)
Loyalsock | | Change Station
CLOSE
Current Station
Personal Weather Station
Location: Williamsport, PA
Elevation: 761 ft
Nearby Weather Stations
Active Advisory: Frost Advisory

Elev 761 ft 41.29 °N, 77.00 °W | Updated 8 minutes ago

Partly Cloudy
Partly Cloudy
64.4 °F
Feels Like 64.4 °F
N
1.1
Wind Variable Wind from NW

Today
High -- | Low -- °F
--% Chance of Precip.
Yesterday
High -- | Low -- °F
Precip. -- in
5:43 AM 8:26 PM
Waxing Crescent, 22% visible
Pressure 29.98 in
Visibility 10.0 miles
Clouds Mostly Cloudy 5500 ft
Mostly Cloudy 7000 ft
Dew Point 42 °F
Humidity 44%
Rainfall 0.00 in
Snow Depth Not available.
UV 6 out of 12
Pollen 8.70 out of 12
Air Quality Not available.
Flu Activity Sporadic
METAR KIPT 221654Z 26008KT 10SM BKN055 BKN070 19/07 A2998 RMK AO2 SLP152 T01940067

More Conditions Fewer Conditions

Pressure 29.98 in
Visibility 10.0 miles
Clouds Mostly Cloudy 5500 ft
Mostly Cloudy 7000 ft
Dew Point 42 °F
Humidity 44%
Rainfall 0.00 in
Snow Depth Not available.
UV 6 out of 12
Pollen 8.70 out of 12
Air Quality Not available.
Flu Activity Sporadic
METAR KIPT 221654Z 26008KT 10SM BKN055 BKN070 19/07 A2998 RMK AO2 SLP152 T01940067

More Conditions Fewer Conditions

10-Day Weather Forecast

Almanac

Astronomy

May. 22, 2015 Rise Set
Actual Time
Civil Twilight
Nautical Twilight
Astronomical Twilight
Moon
Length of Visible Light
Length of Day
Tomorrow will be .
, % of the Moon is Illuminated

Today's Extremes

State Highs State Lows

Community

WunderPhotos

Upload Photos

1,823,266 photos uploaded!

WunderBlogs® & News

Nearby

Air Quality

  Air Quality AQ Index Pollutant
Not available.

Snow Depth

Station Depth Elevation

Earthquake Activity

City Distance Mag. Time & Date
Minimum magnitude displayed is 2.5.

Coastal Water Temperatures

Place Temperature

Stations

Nearby Weather Stations

Station Location Temp. Windchill Dew Point Humidity Wind Precip. Elev Updated Type
                   
Frost Advisory
Statement as of 5:20 AM EDT on May 22, 2015

... Frost advisory remains in effect from midnight tonight to 7 am
EDT Saturday...

* temperatures... lows in the mid 30s.

* Timing... early Saturday morning.

* Impacts... possible damage to sensitive plants.

Precautionary/preparedness actions...

A frost advisory is issued when widespread frost is expected to
develop during the growing season. Those with agricultural or
gardening interests in the advisory area should protect sensitive
plants and crops. Potted plants normally left outdoors should be
covered or brought inside.